Terminal Aerodrome Forecast
Issued by NWS

Home | Current Version | Previous Version | Text Only | Print | Product List | Glossary Off
Versions: 1 2 3 4 5 6 7 8 9 10 11 12 13 14 15 16 17 18 19 20 21 22

819
FTUS43 KOAX 230520
TAFCDR
TAF
KCDR 230520Z 2306/2406 10012KT P6SM BKN010 OVC020
     FM230800 17009KT 5SM BR BKN005 OVC015
     FM231000 10008KT 2SM BR BKN002 OVC005
     FM231700 15020G30KT P6SM BKN015 OVC050
     FM240000 21018G28KT P6SM VCTS SCT050CB BKN100
     FM240300 29020G35KT P6SM SCT100=

USA.gov is the U.S. government's official web portal to all federal, state and local government web resources and services.